sensor_id;sensor_type;location;lat;lon;timestamp;pressure;altitude;pressure_sealevel;temperature;humidity
62126;BME280;48112;53.282;6.150;2023-03-19T00:00:06;101139.75;;;17.49;59.72
62126;BME280;48112;53.282;6.150;2023-03-19T00:01:09;101137.78;;;17.49;59.69
62126;BME280;48112;53.282;6.150;2023-03-19T00:02:11;101134.28;;;17.49;59.42
62126;BME280;48112;53.282;6.150;2023-03-19T00:03:18;101131.56;;;17.49;59.48
62126;BME280;48112;53.282;6.150;2023-03-19T00:04:20;101143.25;;;17.49;59.50
62126;BME280;48112;53.282;6.150;2023-03-19T00:05:24;101140.09;;;17.47;59.47
62126;BME280;48112;53.282;6.150;2023-03-19T00:06:26;101137.78;;;17.49;59.35
62126;BME280;48112;53.282;6.150;2023-03-19T00:07:29;101139.75;;;17.49;59.57
62126;BME280;48112;53.282;6.150;2023-03-19T00:08:32;101137.00;;;17.49;59.47
62126;BME280;48112;53.282;6.150;2023-03-19T00:09:35;101135.06;;;17.49;59.63
62126;BME280;48112;53.282;6.150;2023-03-19T00:10:37;101131.56;;;17.49;59.49
62126;BME280;48112;53.282;6.150;2023-03-19T00:11:39;101136.22;;;17.48;59.69
62126;BME280;48112;53.282;6.150;2023-03-19T00:12:41;101138.94;;;17.48;59.50
62126;BME280;48112;53.282;6.150;2023-03-19T00:13:44;101127.25;;;17.48;59.48
62126;BME280;48112;53.282;6.150;2023-03-19T00:14:46;101133.50;;;17.48;59.58
62126;BME280;48112;53.282;6.150;2023-03-19T00:15:48;101136.22;;;17.48;59.43
62126;BME280;48112;53.282;6.150;2023-03-19T00:16:50;101130.75;;;17.48;59.51
62126;BME280;48112;53.282;6.150;2023-03-19T00:17:53;101132.69;;;17.48;59.51
62126;BME280;48112;53.282;6.150;2023-03-19T00:18:56;101130.75;;;17.48;59.46
62126;BME280;48112;53.282;6.150;2023-03-19T00:19:59;101137.38;;;17.47;59.48
62126;BME280;48112;53.282;6.150;2023-03-19T00:21:01;101135.44;;;17.48;59.53
62126;BME280;48112;53.282;6.150;2023-03-19T00:22:04;101137.38;;;17.47;59.50
62126;BME280;48112;53.282;6.150;2023-03-19T00:23:06;101138.16;;;17.48;59.50
62126;BME280;48112;53.282;6.150;2023-03-19T00:24:10;101136.59;;;17.47;59.37
62126;BME280;48112;53.282;6.150;2023-03-19T00:25:12;101135.44;;;17.48;59.65
62126;BME280;48112;53.282;6.150;2023-03-19T00:26:15;101129.97;;;17.48;59.48
62126;BME280;48112;53.282;6.150;2023-03-19T00:27:17;101137.38;;;17.47;59.60
62126;BME280;48112;53.282;6.150;2023-03-19T00:28:20;101140.09;;;17.47;59.47
62126;BME280;48112;53.282;6.150;2023-03-19T00:29:22;101140.88;;;17.48;59.35
62126;BME280;48112;53.282;6.150;2023-03-19T00:30:25;101135.44;;;17.48;59.42
62126;BME280;48112;53.282;6.150;2023-03-19T00:31:27;101132.69;;;17.48;59.31
62126;BME280;48112;53.282;6.150;2023-03-19T00:32:30;101138.16;;;17.48;59.65
62126;BME280;48112;53.282;6.150;2023-03-19T00:33:34;101135.44;;;17.48;59.58
62126;BME280;48112;53.282;6.150;2023-03-19T00:34:36;101137.38;;;17.47;59.48
62126;BME280;48112;53.282;6.150;2023-03-19T00:35:38;101140.88;;;17.48;59.41
62126;BME280;48112;53.282;6.150;2023-03-19T00:36:41;101138.53;;;17.46;59.43
62126;BME280;48112;53.282;6.150;2023-03-19T00:37:44;101140.88;;;17.48;59.28
62126;BME280;48112;53.282;6.150;2023-03-19T00:38:46;101139.34;;;17.47;59.52
62126;BME280;48112;53.282;6.150;2023-03-19T00:39:50;101140.88;;;17.48;59.62
62126;BME280;48112;53.282;6.150;2023-03-19T00:40:52;101144.78;;;17.47;59.37
62126;BME280;48112;53.282;6.150;2023-03-19T00:41:54;101140.09;;;17.47;59.38
62126;BME280;48112;53.282;6.150;2023-03-19T00:42:57;101140.88;;;17.48;59.47
62126;BME280;48112;53.282;6.150;2023-03-19T00:43:59;101144.78;;;17.47;59.41
62126;BME280;48112;53.282;6.150;2023-03-19T00:45:03;101144.78;;;17.47;59.29
62126;BME280;48112;53.282;6.150;2023-03-19T00:46:06;101146.34;;;17.48;59.25
62126;BME280;48112;53.282;6.150;2023-03-19T00:47:09;101144.78;;;17.47;59.57
62126;BME280;48112;53.282;6.150;2023-03-19T00:48:11;101142.81;;;17.47;59.40
62126;BME280;48112;53.282;6.150;2023-03-19T00:49:14;101150.25;;;17.47;59.60
62126;BME280;48112;53.282;6.150;2023-03-19T00:50:16;101144.78;;;17.47;59.59
62126;BME280;48112;53.282;6.150;2023-03-19T00:51:18;101148.66;;;17.46;59.47
62126;BME280;48112;53.282;6.150;2023-03-19T00:52:20;101150.25;;;17.47;59.54
62126;BME280;48112;53.282;6.150;2023-03-19T00:53:23;101152.97;;;17.47;59.47
62126;BME280;48112;53.282;6.150;2023-03-19T00:54:25;101141.66;;;17.45;59.53
62126;BME280;48112;53.282;6.150;2023-03-19T00:55:31;101148.28;;;17.47;59.52
62126;BME280;48112;53.282;6.150;2023-03-19T00:56:34;101144.78;;;17.47;59.29
62126;BME280;48112;53.282;6.150;2023-03-19T00:57:37;101148.66;;;17.46;59.21
62126;BME280;48112;53.282;6.150;2023-03-19T00:58:39;101152.97;;;17.47;59.40
62126;BME280;48112;53.282;6.150;2023-03-19T00:59:42;101147.53;;;17.47;59.18
62126;BME280;48112;53.282;6.150;2023-03-19T01:00:44;101137.75;;;17.46;59.32
62126;BME280;48112;53.282;6.150;2023-03-19T01:01:47;101143.22;;;17.46;59.13
62126;BME280;48112;53.282;6.150;2023-03-19T01:02:49;101147.53;;;17.47;59.27
62126;BME280;48112;53.282;6.150;2023-03-19T01:03:52;101149.47;;;17.46;59.28
62126;BME280;48112;53.282;6.150;2023-03-19T01:04:54;101143.22;;;17.46;59.37
62126;BME280;48112;53.282;6.150;2023-03-19T01:05:57;101154.91;;;17.46;59.12
62126;BME280;48112;53.282;6.150;2023-03-19T01:06:59;101148.66;;;17.46;59.47
62126;BME280;48112;53.282;6.150;2023-03-19T01:08:00;101143.22;;;17.46;59.24
62126;BME280;48112;53.282;6.150;2023-03-19T01:09:03;101148.66;;;17.46;59.25
62126;BME280;48112;53.282;6.150;2023-03-19T01:10:07;101147.13;;;17.45;59.34
62126;BME280;48112;53.282;6.150;2023-03-19T01:11:11;101154.13;;;17.46;59.44
62126;BME280;48112;53.282;6.150;2023-03-19T01:12:14;101141.66;;;17.45;59.30
62126;BME280;48112;53.282;6.150;2023-03-19T01:13:16;101145.19;;;17.45;59.37
62126;BME280;48112;53.282;6.150;2023-03-19T01:14:19;101147.13;;;17.45;59.31
62126;BME280;48112;53.282;6.150;2023-03-19T01:15:21;101153.38;;;17.45;59.44
62126;BME280;48112;53.282;6.150;2023-03-19T01:16:24;101154.91;;;17.46;59.28
62126;BME280;48112;53.282;6.150;2023-03-19T01:17:26;101151.41;;;17.46;59.23
62126;BME280;48112;53.282;6.150;2023-03-19T01:18:28;101147.13;;;17.45;59.15
62126;BME280;48112;53.282;6.150;2023-03-19T01:19:31;101154.91;;;17.46;59.28
62126;BME280;48112;53.282;6.150;2023-03-19T01:20:33;101143.22;;;17.46;59.25
62126;BME280;48112;53.282;6.150;2023-03-19T01:21:36;101148.66;;;17.46;59.29
62126;BME280;48112;53.282;6.150;2023-03-19T01:22:38;101143.22;;;17.46;59.29
62126;BME280;48112;53.282;6.150;2023-03-19T01:23:42;101143.22;;;17.46;59.27
62126;BME280;48112;53.282;6.150;2023-03-19T01:24:43;101143.22;;;17.46;59.17
62126;BME280;48112;53.282;6.150;2023-03-19T01:25:47;101145.94;;;17.46;59.28
62126;BME280;48112;53.282;6.150;2023-03-19T01:26:50;101148.66;;;17.46;59.14
62126;BME280;48112;53.282;6.150;2023-03-19T01:28:01;101146.31;;;17.44;59.24
62126;BME280;48112;53.282;6.150;2023-03-19T01:29:03;101148.66;;;17.46;58.97
62126;BME280;48112;53.282;6.150;2023-03-19T01:30:07;101147.13;;;17.45;59.29
62126;BME280;48112;53.282;6.150;2023-03-19T01:31:28;101147.13;;;17.45;59.36
62126;BME280;48112;53.282;6.150;2023-03-19T01:32:47;101152.56;;;17.45;59.26
62126;BME280;48112;53.282;6.150;2023-03-19T01:34:04;101147.91;;;17.45;59.00
62126;BME280;48112;53.282;6.150;2023-03-19T01:35:14;101147.13;;;17.45;59.44
62126;BME280;48112;53.282;6.150;2023-03-19T01:36:15;101147.13;;;17.45;59.31
62126;BME280;48112;53.282;6.150;2023-03-19T01:37:30;101145.53;;;17.44;59.22
62126;BME280;48112;53.282;6.150;2023-03-19T01:38:31;101146.31;;;17.44;59.06
62126;BME280;48112;53.282;6.150;2023-03-19T01:39:38;101148.25;;;17.44;59.04
62126;BME280;48112;53.282;6.150;2023-03-19T01:40:44;101140.06;;;17.44;58.90
62126;BME280;48112;53.282;6.150;2023-03-19T01:41:48;101146.31;;;17.44;59.26
62126;BME280;48112;53.282;6.150;2023-03-19T01:43:17;101145.53;;;17.44;59.41
62126;BME280;48112;53.282;6.150;2023-03-19T01:44:25;101140.06;;;17.44;59.40
62126;BME280;48112;53.282;6.150;2023-03-19T01:45:46;101150.97;;;17.44;59.28
62126;BME280;48112;53.282;6.150;2023-03-19T01:47:18;101147.13;;;17.45;59.02
62126;BME280;48112;53.282;6.150;2023-03-19T01:48:43;101152.56;;;17.45;59.13
62126;BME280;48112;53.282;6.150;2023-03-19T01:49:50;101137.69;;;17.39;59.12
62126;BME280;48112;53.282;6.150;2023-03-19T01:50:55;101148.25;;;17.44;59.46
62126;BME280;48112;53.282;6.150;2023-03-19T01:52:32;101150.97;;;17.44;59.20
62126;BME280;48112;53.282;6.150;2023-03-19T01:53:56;101134.59;;;17.44;59.38
62126;BME280;48112;53.282;6.150;2023-03-19T01:55:07;101145.53;;;17.44;59.27
62126;BME280;48112;53.282;6.150;2023-03-19T01:56:21;101140.06;;;17.44;59.07
62126;BME280;48112;53.282;6.150;2023-03-19T01:57:32;101140.06;;;17.44;59.31
62126;BME280;48112;53.282;6.150;2023-03-19T01:58:57;101143.94;;;17.43;59.29
62126;BME280;48112;53.282;6.150;2023-03-19T02:00:10;101138.47;;;17.43;59.41
62126;BME280;48112;53.282;6.150;2023-03-19T02:01:17;101138.13;;;17.44;59.15
62126;BME280;48112;53.282;6.150;2023-03-19T02:02:23;101140.06;;;17.44;59.42
62126;BME280;48112;53.282;6.150;2023-03-19T02:03:29;101135.41;;;17.44;59.01
62126;BME280;48112;53.282;6.150;2023-03-19T02:04:44;101137.34;;;17.44;58.98
62126;BME280;48112;53.282;6.150;2023-03-19T02:05:49;101137.34;;;17.44;59.15
62126;BME280;48112;53.282;6.150;2023-03-19T02:06:54;101137.34;;;17.44;59.16
62126;BME280;48112;53.282;6.150;2023-03-19T02:07:58;101148.25;;;17.44;59.34
62126;BME280;48112;53.282;6.150;2023-03-19T02:09:01;101144.72;;;17.43;59.23
62126;BME280;48112;53.282;6.150;2023-03-19T02:10:06;101150.97;;;17.44;59.13
62126;BME280;48112;53.282;6.150;2023-03-19T02:11:09;101150.97;;;17.44;59.18
62126;BME280;48112;53.282;6.150;2023-03-19T02:12:12;101148.25;;;17.44;59.26
62126;BME280;48112;53.282;6.150;2023-03-19T02:13:14;101144.72;;;17.43;58.97
62126;BME280;48112;53.282;6.150;2023-03-19T02:14:18;101140.06;;;17.44;59.14
62126;BME280;48112;53.282;6.150;2023-03-19T02:15:21;101145.53;;;17.44;58.94
62126;BME280;48112;53.282;6.150;2023-03-19T02:16:24;101143.94;;;17.43;59.03
62126;BME280;48112;53.282;6.150;2023-03-19T02:17:27;101148.25;;;17.44;59.47
62126;BME280;48112;53.282;6.150;2023-03-19T02:18:30;101143.59;;;17.44;59.23
62126;BME280;48112;53.282;6.150;2023-03-19T02:19:34;101140.06;;;17.44;59.13
62126;BME280;48112;53.282;6.150;2023-03-19T02:20:42;101145.53;;;17.44;58.86
62126;BME280;48112;53.282;6.150;2023-03-19T02:21:47;101133.03;;;17.43;59.20
62126;BME280;48112;53.282;6.150;2023-03-19T02:22:54;101134.59;;;17.44;59.31
62126;BME280;48112;53.282;6.150;2023-03-19T02:24:00;101142.78;;;17.44;59.11
62126;BME280;48112;53.282;6.150;2023-03-19T02:25:20;101140.06;;;17.44;59.31
62126;BME280;48112;53.282;6.150;2023-03-19T02:26:27;101137.34;;;17.44;59.22
62126;BME280;48112;53.282;6.150;2023-03-19T02:27:35;101140.06;;;17.44;59.14
62126;BME280;48112;53.282;6.150;2023-03-19T02:28:38;101133.81;;;17.43;59.04
62126;BME280;48112;53.282;6.150;2023-03-19T02:29:42;101137.34;;;17.44;58.98
62126;BME280;48112;53.282;6.150;2023-03-19T02:30:44;101131.47;;;17.42;59.13
62126;BME280;48112;53.282;6.150;2023-03-19T02:31:46;101134.59;;;17.44;59.35
62126;BME280;48112;53.282;6.150;2023-03-19T02:32:49;101134.59;;;17.44;59.22
62126;BME280;48112;53.282;6.150;2023-03-19T02:33:55;101138.47;;;17.43;59.06
62126;BME280;48112;53.282;6.150;2023-03-19T02:34:58;101136.53;;;17.43;58.96
62126;BME280;48112;53.282;6.150;2023-03-19T02:36:01;101140.06;;;17.44;59.42
62126;BME280;48112;53.282;6.150;2023-03-19T02:37:06;101137.34;;;17.44;59.17
62126;BME280;48112;53.282;6.150;2023-03-19T02:38:09;101134.59;;;17.44;59.10
62126;BME280;48112;53.282;6.150;2023-03-19T02:39:14;101140.84;;;17.44;58.91
62126;BME280;48112;53.282;6.150;2023-03-19T02:40:20;101134.59;;;17.44;58.95
62126;BME280;48112;53.282;6.150;2023-03-19T02:41:24;101140.06;;;17.44;59.18
62126;BME280;48112;53.282;6.150;2023-03-19T02:42:28;101129.16;;;17.44;59.36
62126;BME280;48112;53.282;6.150;2023-03-19T02:43:31;101138.47;;;17.43;58.88
62126;BME280;48112;53.282;6.150;2023-03-19T02:44:34;101134.59;;;17.44;59.15
62126;BME280;48112;53.282;6.150;2023-03-19T02:45:37;101131.44;;;17.38;59.04
62126;BME280;48112;53.282;6.150;2023-03-19T02:46:40;101140.06;;;17.44;58.98
62126;BME280;48112;53.282;6.150;2023-03-19T02:47:43;101139.28;;;17.43;59.10
62126;BME280;48112;53.282;6.150;2023-03-19T02:48:45;101139.28;;;17.43;59.05
62126;BME280;48112;53.282;6.150;2023-03-19T02:49:48;101138.47;;;17.43;59.15
62126;BME280;48112;53.282;6.150;2023-03-19T02:50:50;101135.75;;;17.43;59.14
62126;BME280;48112;53.282;6.150;2023-03-19T02:51:53;101147.47;;;17.43;59.17
62126;BME280;48112;53.282;6.150;2023-03-19T02:52:56;101133.03;;;17.43;59.10
62126;BME280;48112;53.282;6.150;2023-03-19T02:53:58;101143.94;;;17.43;59.34
62126;BME280;48112;53.282;6.150;2023-03-19T02:55:01;101138.47;;;17.43;59.10
62126;BME280;48112;53.282;6.150;2023-03-19T02:56:04;101147.47;;;17.43;59.00
62126;BME280;48112;53.282;6.150;2023-03-19T02:57:06;101152.13;;;17.43;59.16
62126;BME280;48112;53.282;6.150;2023-03-19T02:58:10;101143.94;;;17.43;59.06
62126;BME280;48112;53.282;6.150;2023-03-19T02:59:12;101142.38;;;17.42;59.30
62126;BME280;48112;53.282;6.150;2023-03-19T03:00:15;101149.41;;;17.43;59.14
62126;BME280;48112;53.282;6.150;2023-03-19T03:01:19;101146.66;;;17.43;59.05
62126;BME280;48112;53.282;6.150;2023-03-19T03:02:22;101150.56;;;17.42;58.83
62126;BME280;48112;53.282;6.150;2023-03-19T03:03:24;101149.41;;;17.43;58.81
62126;BME280;48112;53.282;6.150;2023-03-19T03:04:27;101151.38;;;17.42;59.14
62126;BME280;48112;53.282;6.150;2023-03-19T03:05:29;101145.13;;;17.42;59.16
62126;BME280;48112;53.282;6.150;2023-03-19T03:06:32;101149.00;;;17.41;58.91
62126;BME280;48112;53.282;6.150;2023-03-19T03:07:35;101153.31;;;17.42;58.96
62126;BME280;48112;53.282;6.150;2023-03-19T03:08:38;101150.56;;;17.42;58.78
62126;BME280;48112;53.282;6.150;2023-03-19T03:09:41;101154.47;;;17.41;59.11
62126;BME280;48112;53.282;6.150;2023-03-19T03:10:45;101158.75;;;17.42;59.04
62126;BME280;48112;53.282;6.150;2023-03-19T03:11:46;101164.22;;;17.42;58.89
62126;BME280;48112;53.282;6.150;2023-03-19T03:12:49;101159.94;;;17.41;59.16
62126;BME280;48112;53.282;6.150;2023-03-19T03:13:52;101164.22;;;17.42;59.18
62126;BME280;48112;53.282;6.150;2023-03-19T03:14:55;101161.50;;;17.42;59.19
62126;BME280;48112;53.282;6.150;2023-03-19T03:15:57;101162.66;;;17.41;58.91
62126;BME280;48112;53.282;6.150;2023-03-19T03:17:00;101166.94;;;17.42;58.99
62126;BME280;48112;53.282;6.150;2023-03-19T03:18:02;101164.22;;;17.42;59.20
62126;BME280;48112;53.282;6.150;2023-03-19T03:19:05;101161.84;;;17.37;59.16
62126;BME280;48112;53.282;6.150;2023-03-19T03:20:07;101169.69;;;17.42;59.09
62126;BME280;48112;53.282;6.150;2023-03-19T03:21:11;101162.66;;;17.41;58.86
62126;BME280;48112;53.282;6.150;2023-03-19T03:22:13;101169.69;;;17.42;59.16
62126;BME280;48112;53.282;6.150;2023-03-19T03:24:36;101170.84;;;17.41;58.92
62126;BME280;48112;53.282;6.150;2023-03-19T03:25:40;101171.63;;;17.41;58.83
62126;BME280;48112;53.282;6.150;2023-03-19T03:26:42;101171.63;;;17.41;58.99
62126;BME280;48112;53.282;6.150;2023-03-19T03:27:44;101181.38;;;17.42;58.88
62126;BME280;48112;53.282;6.150;2023-03-19T03:28:46;101181.78;;;17.41;59.11
62126;BME280;48112;53.282;6.150;2023-03-19T03:29:50;101181.38;;;17.42;59.04
62126;BME280;48112;53.282;6.150;2023-03-19T03:30:56;101180.59;;;17.42;58.79
62126;BME280;48112;53.282;6.150;2023-03-19T03:31:59;101180.59;;;17.42;58.83
62126;BME280;48112;53.282;6.150;2023-03-19T03:33:01;101184.50;;;17.41;59.08
62126;BME280;48112;53.282;6.150;2023-03-19T03:34:04;101180.59;;;17.42;58.82
62126;BME280;48112;53.282;6.150;2023-03-19T03:35:06;101177.88;;;17.42;59.03
62126;BME280;48112;53.282;6.150;2023-03-19T03:36:09;101184.50;;;17.41;58.78
62126;BME280;48112;53.282;6.150;2023-03-19T03:37:11;101184.50;;;17.41;58.94
62126;BME280;48112;53.282;6.150;2023-03-19T03:38:14;101184.50;;;17.41;58.90
62126;BME280;48112;53.282;6.150;2023-03-19T03:39:16;101189.16;;;17.40;58.87
62126;BME280;48112;53.282;6.150;2023-03-19T03:40:19;101178.25;;;17.40;59.09
62126;BME280;48112;53.282;6.150;2023-03-19T03:41:25;101186.06;;;17.42;59.05
62126;BME280;48112;53.282;6.150;2023-03-19T03:42:28;101182.91;;;17.40;58.96
62126;BME280;48112;53.282;6.150;2023-03-19T03:43:30;101181.34;;;17.39;59.20
62126;BME280;48112;53.282;6.150;2023-03-19T03:44:33;101182.91;;;17.40;59.12
62126;BME280;48112;53.282;6.150;2023-03-19T03:45:36;101182.91;;;17.40;59.10
62126;BME280;48112;53.282;6.150;2023-03-19T03:46:39;101180.19;;;17.40;58.97
62126;BME280;48112;53.282;6.150;2023-03-19T03:47:41;101186.03;;;17.38;58.88
62126;BME280;48112;53.282;6.150;2023-03-19T03:48:44;101184.09;;;17.39;59.01
62126;BME280;48112;53.282;6.150;2023-03-19T03:49:46;101176.69;;;17.39;58.80
62126;BME280;48112;53.282;6.150;2023-03-19T03:50:49;101180.56;;;17.38;59.26
62126;BME280;48112;53.282;6.150;2023-03-19T03:51:55;101184.09;;;17.39;59.12
62126;BME280;48112;53.282;6.150;2023-03-19T03:52:58;101184.09;;;17.39;59.17
62126;BME280;48112;53.282;6.150;2023-03-19T03:54:00;101184.09;;;17.39;59.07
62126;BME280;48112;53.282;6.150;2023-03-19T03:55:03;101191.09;;;17.40;59.13
62126;BME280;48112;53.282;6.150;2023-03-19T03:56:06;101186.81;;;17.39;59.10
62126;BME280;48112;53.282;6.150;2023-03-19T03:57:09;101192.28;;;17.39;59.06
62126;BME280;48112;53.282;6.150;2023-03-19T03:58:10;101187.59;;;17.39;59.02
62126;BME280;48112;53.282;6.150;2023-03-19T03:59:14;101189.53;;;17.39;59.17
62126;BME280;48112;53.282;6.150;2023-03-19T04:00:16;101183.72;;;17.40;59.05
62126;BME280;48112;53.282;6.150;2023-03-19T04:01:21;101191.09;;;17.40;58.77
62126;BME280;48112;53.282;6.150;2023-03-19T04:02:27;101184.88;;;17.39;58.96
62126;BME280;48112;53.282;6.150;2023-03-19T04:03:30;101176.69;;;17.39;58.95
62126;BME280;48112;53.282;6.150;2023-03-19T04:04:32;101189.53;;;17.39;59.08
62126;BME280;48112;53.282;6.150;2023-03-19T04:05:35;101182.16;;;17.39;58.95
62126;BME280;48112;53.282;6.150;2023-03-19T04:06:38;101193.84;;;17.40;58.76
62126;BME280;48112;53.282;6.150;2023-03-19T04:07:59;101183.72;;;17.40;58.73
62126;BME280;48112;53.282;6.150;2023-03-19T04:09:01;101183.72;;;17.40;59.03
62126;BME280;48112;53.282;6.150;2023-03-19T04:10:05;101177.44;;;17.40;58.87
62126;BME280;48112;53.282;6.150;2023-03-19T04:11:08;101189.16;;;17.40;59.09
62126;BME280;48112;53.282;6.150;2023-03-19T04:12:11;101186.44;;;17.40;58.85
62126;BME280;48112;53.282;6.150;2023-03-19T04:13:13;101182.91;;;17.40;58.87
62126;BME280;48112;53.282;6.150;2023-03-19T04:14:15;101182.91;;;17.40;58.91
62126;BME280;48112;53.282;6.150;2023-03-19T04:15:17;101184.50;;;17.41;58.86
62126;BME280;48112;53.282;6.150;2023-03-19T04:16:23;101184.50;;;17.41;58.80
62126;BME280;48112;53.282;6.150;2023-03-19T04:17:25;101181.78;;;17.41;58.68
62126;BME280;48112;53.282;6.150;2023-03-19T04:18:28;101184.50;;;17.41;58.57
62126;BME280;48112;53.282;6.150;2023-03-19T04:19:29;101186.06;;;17.42;58.93
62126;BME280;48112;53.282;6.150;2023-03-19T04:20:32;101183.72;;;17.40;58.88
62126;BME280;48112;53.282;6.150;2023-03-19T04:21:35;101192.69;;;17.41;58.65
62126;BME280;48112;53.282;6.150;2023-03-19T04:22:38;101191.50;;;17.42;58.63
62126;BME280;48112;53.282;6.150;2023-03-19T04:23:39;101191.50;;;17.42;58.70
62126;BME280;48112;53.282;6.150;2023-03-19T04:24:42;101196.19;;;17.41;58.89
62126;BME280;48112;53.282;6.150;2023-03-19T04:25:45;101188.38;;;17.40;58.56
62126;BME280;48112;53.282;6.150;2023-03-19T04:26:48;101189.16;;;17.40;58.95
62126;BME280;48112;53.282;6.150;2023-03-19T04:27:51;101191.09;;;17.40;58.92
62126;BME280;48112;53.282;6.150;2023-03-19T04:28:54;101193.84;;;17.40;58.79
62126;BME280;48112;53.282;6.150;2023-03-19T04:29:57;101194.63;;;17.40;58.89
62126;BME280;48112;53.282;6.150;2023-03-19T04:30:59;101193.84;;;17.40;59.00
62126;BME280;48112;53.282;6.150;2023-03-19T04:32:05;101195.00;;;17.39;58.82
62126;BME280;48112;53.282;6.150;2023-03-19T04:33:07;101195.00;;;17.39;58.68
62126;BME280;48112;53.282;6.150;2023-03-19T04:34:09;101195.00;;;17.39;58.79
62126;BME280;48112;53.282;6.150;2023-03-19T04:35:12;101196.16;;;17.38;58.68
62126;BME280;48112;53.282;6.150;2023-03-19T04:36:15;101187.97;;;17.38;58.97
62126;BME280;48112;53.282;6.150;2023-03-19T04:37:18;101187.97;;;17.38;58.99
62126;BME280;48112;53.282;6.150;2023-03-19T04:38:24;101189.91;;;17.37;58.75
62126;BME280;48112;53.282;6.150;2023-03-19T04:39:26;101193.41;;;17.38;59.07
62126;BME280;48112;53.282;6.150;2023-03-19T04:40:29;101187.19;;;17.37;58.67
62126;BME280;48112;53.282;6.150;2023-03-19T04:41:31;101196.16;;;17.38;58.88
62126;BME280;48112;53.282;6.150;2023-03-19T04:42:56;101198.88;;;17.38;58.84
62126;BME280;48112;53.282;6.150;2023-03-19T04:44:05;101189.13;;;17.37;58.80
62126;BME280;48112;53.282;6.150;2023-03-19T04:45:09;101189.13;;;17.37;58.75
62126;BME280;48112;53.282;6.150;2023-03-19T04:46:13;101193.78;;;17.36;59.01
62126;BME280;48112;53.282;6.150;2023-03-19T04:47:16;101197.31;;;17.37;58.59
62126;BME280;48112;53.282;6.150;2023-03-19T04:48:24;101193.78;;;17.36;58.80
62126;BME280;48112;53.282;6.150;2023-03-19T04:49:27;101194.59;;;17.37;58.65
62126;BME280;48112;53.282;6.150;2023-03-19T04:50:31;101191.06;;;17.36;58.93
62126;BME280;48112;53.282;6.150;2023-03-19T04:51:33;101198.50;;;17.36;58.59
62126;BME280;48112;53.282;6.150;2023-03-19T04:52:36;101197.31;;;17.37;58.73
62126;BME280;48112;53.282;6.150;2023-03-19T04:53:38;101195.75;;;17.36;58.95
62126;BME280;48112;53.282;6.150;2023-03-19T04:54:41;101198.50;;;17.36;58.63
62126;BME280;48112;53.282;6.150;2023-03-19T04:55:42;101190.69;;;17.34;58.62
62126;BME280;48112;53.282;6.150;2023-03-19T04:56:51;101198.50;;;17.36;58.82
62126;BME280;48112;53.282;6.150;2023-03-19T04:57:55;101190.31;;;17.36;58.88
62126;BME280;48112;53.282;6.150;2023-03-19T04:59:01;101191.06;;;17.36;59.01
62126;BME280;48112;53.282;6.150;2023-03-19T05:00:03;101195.75;;;17.36;58.82
62126;BME280;48112;53.282;6.150;2023-03-19T05:01:10;101193.03;;;17.36;58.64
62126;BME280;48112;53.282;6.150;2023-03-19T05:02:32;101194.59;;;17.37;58.94
62126;BME280;48112;53.282;6.150;2023-03-19T05:03:34;101198.50;;;17.36;58.55
62126;BME280;48112;53.282;6.150;2023-03-19T05:04:37;101200.03;;;17.37;58.67
62126;BME280;48112;53.282;6.150;2023-03-19T05:05:43;101204.34;;;17.38;58.81
62126;BME280;48112;53.282;6.150;2023-03-19T05:06:46;101202.78;;;17.37;58.70
62126;BME280;48112;53.282;6.150;2023-03-19T05:07:48;101208.25;;;17.37;58.73
62126;BME280;48112;53.282;6.150;2023-03-19T05:08:50;101208.25;;;17.37;58.78
62126;BME280;48112;53.282;6.150;2023-03-19T05:09:54;101205.50;;;17.37;58.72
62126;BME280;48112;53.282;6.150;2023-03-19T05:10:56;101208.25;;;17.37;58.43
62126;BME280;48112;53.282;6.150;2023-03-19T05:12:04;101202.78;;;17.37;58.84
62126;BME280;48112;53.282;6.150;2023-03-19T05:13:12;101205.50;;;17.37;58.62
62126;BME280;48112;53.282;6.150;2023-03-19T05:14:21;101210.97;;;17.37;58.69
62126;BME280;48112;53.282;6.150;2023-03-19T05:15:37;101201.22;;;17.36;58.64
62126;BME280;48112;53.282;6.150;2023-03-19T05:16:43;101208.25;;;17.37;58.68
62126;BME280;48112;53.282;6.150;2023-03-19T05:17:47;101199.25;;;17.36;58.61
62126;BME280;48112;53.282;6.150;2023-03-19T05:18:54;101209.41;;;17.36;58.74
62126;BME280;48112;53.282;6.150;2023-03-19T05:19:57;101205.50;;;17.37;58.85
62126;BME280;48112;53.282;6.150;2023-03-19T05:21:00;101201.97;;;17.36;58.49
62126;BME280;48112;53.282;6.150;2023-03-19T05:22:05;101210.97;;;17.37;58.75
62126;BME280;48112;53.282;6.150;2023-03-19T05:23:07;101209.41;;;17.36;58.48
62126;BME280;48112;53.282;6.150;2023-03-19T05:24:27;101203.94;;;17.36;58.63
62126;BME280;48112;53.282;6.150;2023-03-19T05:25:30;101205.88;;;17.35;58.77
62126;BME280;48112;53.282;6.150;2023-03-19T05:26:33;101203.16;;;17.35;58.36
62126;BME280;48112;53.282;6.150;2023-03-19T05:27:51;101207.81;;;17.35;58.67
62126;BME280;48112;53.282;6.150;2023-03-19T05:28:56;101211.72;;;17.34;58.42
62126;BME280;48112;53.282;6.150;2023-03-19T05:30:09;101199.63;;;17.35;58.54
62126;BME280;48112;53.282;6.150;2023-03-19T05:31:23;101200.81;;;17.34;58.38
62126;BME280;48112;53.282;6.150;2023-03-19T05:32:27;101206.25;;;17.34;58.54
62126;BME280;48112;53.282;6.150;2023-03-19T05:33:32;101200.81;;;17.34;58.39
62126;BME280;48112;53.282;6.150;2023-03-19T05:34:35;101201.97;;;17.33;58.72
62126;BME280;48112;53.282;6.150;2023-03-19T05:35:37;101210.94;;;17.33;58.59
62126;BME280;48112;53.282;6.150;2023-03-19T05:36:51;101200.81;;;17.34;58.43
62126;BME280;48112;53.282;6.150;2023-03-19T05:37:53;101207.06;;;17.34;58.64
62126;BME280;48112;53.282;6.150;2023-03-19T05:38:56;101206.25;;;17.34;58.58